Time;durP1;ratioP1;P1;durP2;ratioP2;P2;SDS_P1;SDS_P2;PMS_P1;PMS_P2;Temp;Humidity;BMP_temperature;BMP_pressure;BME280_temperature;BME280_humidity;BME280_pressure;Samples;Min_cycle;Max_cycle;Signal;HPM_P1;HPM_P2
2022/03/03 00:09:58;;;;;;;2.17;1.97;;;;;;;;;;20788038;28;20284;-85
2022/03/03 00:19:59;;;;;;;2.50;2.00;;;;;;;;;;20803691;28;20237;-84
2022/03/03 00:30:02;;;;;;;2.23;1.97;;;;;;;;;;20842047;28;20227;-83
2022/03/03 00:40:04;;;;;;;3.57;2.20;;;;;;;;;;20784431;28;20707;-84
2022/03/03 00:50:06;;;;;;;2.53;2.20;;;;;;;;;;20800634;28;20226;-84
2022/03/03 01:00:09;;;;;;;1.73;1.10;;;;;;;;;;20801089;28;20210;-83
2022/03/03 01:10:11;;;;;;;2.77;2.20;;;;;;;;;;20851645;28;20312;-84
2022/03/03 01:20:13;;;;;;;2.70;1.77;;;;;;;;;;20816268;28;20219;-85
2022/03/03 01:30:15;;;;;;;4.80;1.60;;;;;;;;;;20813943;28;20683;-84
2022/03/03 01:40:22;;;;;;;1.70;1.20;;;;;;;;;;20877457;28;20619;-84
2022/03/03 01:50:24;;;;;;;2.03;1.63;;;;;;;;;;20849119;28;20222;-83
2022/03/03 02:00:25;;;;;;;2.57;2.23;;;;;;;;;;20797623;28;20211;-84
2022/03/03 02:10:27;;;;;;;2.83;1.83;;;;;;;;;;20812835;28;20219;-82
2022/03/03 02:20:30;;;;;;;2.07;1.77;;;1.20;99.90;;;;;;20828896;28;20227;-82
2022/03/03 02:30:32;;;;;;;2.47;1.63;;;;;;;;;;20780125;28;20708;-82
2022/03/03 02:40:33;;;;;;;2.07;1.50;;;;;;;;;;20819117;28;20218;-82
2022/03/03 02:50:35;;;;;;;2.20;1.60;;;;;;;;;;20779370;28;20284;-82
2022/03/03 03:00:43;;;;;;;2.07;1.57;;;;;;;;;;20811751;28;20620;-80
2022/03/03 03:10:45;;;;;;;1.67;1.30;;;;;;;;;;20810442;28;20223;-82
2022/03/03 03:20:50;;;;;;;2.17;1.77;;;0.70;99.90;;;;;;20793627;28;20675;-81
2022/03/03 03:30:51;;;;;;;6.80;2.13;;;;;;;;;;20792630;28;20210;-81
2022/03/03 03:40:53;;;;;;;2.03;1.57;;;;;;;;;;20776840;28;20686;-82
2022/03/03 03:50:55;;;;;;;4.10;2.80;;;;;;;;;;20792480;28;20226;-83
2022/03/03 04:00:57;;;;;;;2.80;2.13;;;;;;;;;;20796488;28;20218;-82
2022/03/03 04:10:58;;;;;;;1.90;1.30;;;;;;;;;;20789251;28;20261;-81
2022/03/03 04:21:00;;;;;;;1.57;1.47;;;;;;;;;;20791315;28;20237;-83
2022/03/03 04:31:02;;;;;;;2.30;1.73;;;;;;;;;;20837915;28;20226;-81
2022/03/03 04:41:04;;;;;;;1.80;1.33;;;;;;;;;;20812818;28;20700;-82
2022/03/03 04:51:06;;;;;;;1.67;1.33;;;;;;;;;;20803437;28;20226;-80
2022/03/03 05:01:08;;;;;;;1.90;1.30;;;;;;;;;;20801544;28;20269;-80
2022/03/03 05:11:09;;;;;;;2.03;1.80;;;;;;;;;;20816989;28;20549;-80
2022/03/03 05:21:11;;;;;;;2.80;1.67;;;;;;;;;;20801667;28;20249;-80
2022/03/03 05:31:13;;;;;;;2.23;1.40;;;;;;;;;;20798336;28;20696;-80
2022/03/03 05:41:14;;;;;;;4.03;2.03;;;;;;;;;;20815694;28;20561;-80
2022/03/03 05:51:17;;;;;;;2.53;1.60;;;;;;;;;;20818957;28;20284;-80
2022/03/03 06:01:19;;;;;;;2.63;2.37;;;;;;;;;;20820815;28;20214;-80
2022/03/03 06:11:22;;;;;;;1.73;1.37;;;-0.20;99.90;;;;;;20827796;28;20219;-80
2022/03/03 06:21:24;;;;;;;1.60;1.17;;;;;;;;;;20811162;28;20672;-79
2022/03/03 06:31:26;;;;;;;2.33;1.37;;;;;;;;;;20809293;28;20231;-79
2022/03/03 06:41:28;;;;;;;1.70;1.00;;;;;;;;;;20811683;28;20291;-81
2022/03/03 06:51:34;;;;;;;1.20;1.10;;;;;;;;;;20905820;28;20248;-79
2022/03/03 07:01:41;;;;;;;2.67;1.90;;;;;;;;;;20907957;28;20313;-79
2022/03/03 07:11:44;;;;;;;2.00;1.80;;;-0.50;99.90;;;;;;20890937;28;20260;-78
2022/03/03 07:21:46;;;;;;;1.60;1.50;;;;;;;;;;20890255;28;20206;-79
2022/03/03 07:31:57;;;;;;;1.73;1.63;;;0.10;99.90;;;;;;20875147;28;20221;-80
2022/03/03 07:41:59;;;;;;;3.50;2.70;;;;;;;;;;20906309;28;20213;-79
2022/03/03 07:52:04;;;;;;;4.83;3.37;;;;;;;;;;20905661;28;20230;-81
2022/03/03 08:02:06;;;;;;;2.83;1.90;;;;;;;;;;20905263;28;20226;-83
2022/03/03 08:12:08;;;;;;;3.07;2.33;;;;;;;;;;20887456;28;20788;-84
2022/03/03 08:22:12;;;;;;;7.63;2.17;;;;;;;;;;20902400;28;20280;-85
2022/03/03 08:32:16;;;;;;;1.90;1.70;;;;;;;;;;20887176;28;20229;-83
2022/03/03 08:42:23;;;;;;;4.10;2.73;;;;;;;;;;20885996;28;20206;-84
2022/03/03 09:09:33;;;;;;;3.50;2.73;;;;;;;;;;20977207;28;20589;-67
2022/03/03 09:19:36;;;;;;;3.03;2.40;;;;;;;;;;20840021;28;20217;-67
2022/03/03 09:29:37;;;;;;;3.90;2.60;;;;;;;;;;20833690;28;20206;-67
2022/03/03 09:39:40;;;;;;;5.53;3.13;;;;;;;;;;20875101;28;20218;-67
2022/03/03 09:49:42;;;;;;;4.70;3.07;;;;;;;;;;20873694;28;20260;-66
2022/03/03 09:59:44;;;;;;;3.77;2.77;;;;;;;;;;20860864;28;20206;-67
2022/03/03 10:09:59;;;;;;;5.00;2.73;;;5.70;99.90;;;;;;20842969;28;20271;-68
2022/03/03 10:20:03;;;;;;;5.03;3.20;;;;;;;;;;20824771;28;20202;-68
2022/03/03 10:30:06;;;;;;;4.63;3.23;;;;;;;;;;20799407;28;20751;-67
2022/03/03 10:40:11;;;;;;;3.53;2.77;;;;;;;;;;20798662;28;20210;-66
2022/03/03 10:50:13;;;;;;;5.07;3.00;;;7.10;99.90;;;;;;20813352;28;20230;-68
2022/03/03 11:00:19;;;;;;;4.33;2.93;;;;;;;;;;20813654;28;20288;-66
2022/03/03 11:10:21;;;;;;;4.83;3.07;;;;;;;;;;20792942;28;20215;-66
2022/03/03 11:20:24;;;;;;;4.97;3.20;;;;;;;;;;20812728;28;20631;-66
2022/03/03 11:30:26;;;;;;;4.70;3.17;;;;;;;;;;20810704;28;20284;-67
2022/03/03 11:40:33;;;;;;;5.83;3.07;;;8.50;99.90;;;;;;20794205;28;20638;-66
2022/03/03 11:50:35;;;;;;;5.47;3.23;;;;;;;;;;20767211;28;20701;-66
2022/03/03 12:00:47;;;;;;;3.97;2.47;;;;;;;;;;20784870;28;20257;-66
2022/03/03 12:11:01;;;;;;;4.90;3.10;;;;;;;;;;20776067;28;20218;-66
2022/03/03 12:21:22;;;;;;;5.60;3.77;;;9.00;99.90;;;;;;20794239;28;20304;-66
2022/03/03 12:31:26;;;;;;;4.53;2.67;;;8.80;99.90;;;;;;20780649;28;20693;-66
2022/03/03 12:41:30;;;;;;;4.43;2.77;;;9.30;99.90;;;;;;20795784;28;20214;-66
2022/03/03 12:51:32;;;;;;;4.57;3.23;;;;;;;;;;20806707;28;20219;-67
2022/03/03 13:01:37;;;;;;;5.70;2.87;;;9.70;99.90;;;;;;20807209;28;20217;-66
2022/03/03 13:11:39;;;;;;;3.33;2.53;;;;;;;;;;20806355;28;20599;-66
2022/03/03 13:21:43;;;;;;;4.57;2.83;;;10.00;99.90;;;;;;20789356;28;20210;-66
2022/03/03 13:31:46;;;;;;;5.40;2.87;;;;;;;;;;20753302;22;20277;-64
2022/03/03 13:41:48;;;;;;;4.07;2.77;;;;;;;;;;20638520;28;20243;-63
2022/03/03 13:52:08;;;;;;;4.30;2.63;;;;;;;;;;20657957;28;20776;-64
2022/03/03 14:02:11;;;;;;;5.17;2.77;;;;;;;;;;20681308;28;20192;-63
2022/03/03 14:12:13;;;;;;;5.23;2.60;;;;;;;;;;20648988;28;20653;-63
2022/03/03 14:22:19;;;;;;;4.13;2.90;;;;;;;;;;20631824;28;20204;-63
2022/03/03 14:32:21;;;;;;;4.43;2.43;;;;;;;;;;20665342;28;20215;-63
2022/03/03 14:42:23;;;;;;;4.03;2.67;;;;;;;;;;20665686;28;20749;-63
2022/03/03 14:52:25;;;;;;;4.83;2.37;;;;;;;;;;20648229;28;20227;-64
2022/03/03 15:02:28;;;;;;;5.13;2.87;;;;;;;;;;20656930;28;20220;-64
2022/03/03 15:12:30;;;;;;;2.93;2.10;;;;;;;;;;20654185;28;20212;-63
2022/03/03 15:22:31;;;;;;;4.07;2.77;;;8.40;99.90;;;;;;20641118;28;20216;-63
2022/03/03 15:32:33;;;;;;;3.57;2.30;;;;;;;;;;20629964;28;20241;-64
2022/03/03 15:42:36;;;;;;;6.43;3.30;;;;;;;;;;20639087;28;20204;-63
2022/03/03 15:52:38;;;;;;;3.40;2.30;;;;;;;;;;20643773;28;20286;-64
2022/03/03 16:02:40;;;;;;;4.03;2.30;;;;;;;;;;20673585;28;20262;-64
2022/03/03 16:12:42;;;;;;;3.40;1.90;;;;;;;;;;20624988;28;20228;-63
2022/03/03 16:22:44;;;;;;;4.00;2.40;;;;;;;;;;20628150;28;20274;-64
2022/03/03 16:32:47;;;;;;;6.37;2.30;;;;;;;;;;20627645;28;20224;-63
2022/03/03 16:42:49;;;;;;;4.00;2.40;;;;;;;;;;20660425;28;20207;-64
2022/03/03 16:52:50;;;;;;;6.07;2.20;;;;;;;;;;20627973;28;20254;-64
2022/03/03 17:02:53;;;;;;;2.80;1.97;;;;;;;;;;20672321;28;20274;-63
2022/03/03 17:12:55;;;;;;;3.10;1.93;;;;;;;;;;20656665;28;20224;-64
2022/03/03 17:22:58;;;;;;;5.70;3.27;;;;;;;;;;20659237;28;20235;-64
2022/03/03 17:32:59;;;;;;;9.37;2.50;;;7.40;99.90;;;;;;20673650;28;20223;-64
2022/03/03 17:43:02;;;;;;;4.47;2.10;;;;;;;;;;20673573;28;20274;-64
2022/03/03 17:53:04;;;;;;;5.93;2.00;;;;;;;;;;20642352;28;20227;-64
2022/03/03 18:03:06;;;;;;;3.63;2.03;;;;;;;;;;20615756;28;20220;-64
2022/03/03 18:13:08;;;;;;;2.13;1.63;;;;;;;;;;20635833;28;20707;-64
2022/03/03 18:23:10;;;;;;;5.30;3.00;;;;;;;;;;20653110;28;20204;-64
2022/03/03 18:33:17;;;;;;;3.23;1.63;;;;;;;;;;20618730;28;20227;-64
2022/03/03 18:43:19;;;;;;;3.63;2.30;;;;;;;;;;20632150;28;20707;-64
2022/03/03 18:53:22;;;;;;;5.23;2.60;;;;;;;;;;20632242;28;20290;-64
2022/03/03 19:03:24;;;;;;;2.70;1.50;;;;;;;;;;20664726;28;20223;-64
2022/03/03 19:13:26;;;;;;;2.87;1.87;;;;;;;;;;20648546;28;20219;-64
2022/03/03 19:23:29;;;;;;;4.10;2.10;;;6.20;99.90;;;;;;20653772;28;20200;-64
2022/03/03 19:43:52;;;;;;;5.37;2.87;;;;;;;;;;20743104;28;20211;-82
2022/03/03 19:53:54;;;;;;;2.37;2.03;;;;;;;;;;20766162;28;20246;-82
2022/03/03 20:03:56;;;;;;;3.90;2.10;;;;;;;;;;20683243;28;20199;-82
2022/03/03 20:13:57;;;;;;;2.80;2.03;;;;;;;;;;20731310;28;20231;-82
2022/03/03 20:24:00;;;;;;;4.50;2.40;;;;;;;;;;20743120;28;20277;-82
2022/03/03 20:34:01;;;;;;;3.53;1.80;;;;;;;;;;20743169;28;20230;-82
2022/03/03 20:44:03;;;;;;;3.93;2.07;;;;;;;;;;20728609;28;20219;-81
2022/03/03 20:54:08;;;;;;;2.57;1.77;;;;;;;;;;20750863;28;20258;-83
2022/03/03 21:04:10;;;;;;;2.80;1.83;;;;;;;;;;20736718;28;20242;-83
2022/03/03 21:14:13;;;;;;;3.23;2.00;;;;;;;;;;20753397;28;20239;-84
2022/03/03 21:24:16;;;;;;;12.53;9.70;;;;;;;;;;20718713;28;20234;-84
2022/03/03 21:34:30;;;;;;;10.93;6.23;;;;;;;;;;20714866;28;20227;-84
2022/03/03 21:44:50;;;;;;;2.87;2.17;;;;;;;;;;20714526;28;20280;-83
2022/03/03 22:06:04;;;;;;;3.30;2.33;;;;;;;;;;21268911;27;20562;-68
2022/03/03 22:16:07;;;;;;;2.53;2.03;;;4.80;99.90;;;;;;21149054;27;20203;-68
2022/03/03 22:26:09;;;;;;;3.73;2.03;;;;;;;;;;21162665;27;20208;-65
2022/03/03 22:36:11;;;;;;;4.00;2.50;;;4.70;99.90;;;;;;21181135;27;20207;-65
2022/03/03 22:46:13;;;;;;;2.70;1.87;;;;;;;;;;21182572;27;20204;-67
2022/03/03 22:56:14;;;;;;;3.57;2.20;;;;;;;;;;21166904;27;20268;-68
2022/03/03 23:06:16;;;;;;;2.53;2.10;;;;;;;;;;21170583;27;20200;-68
2022/03/03 23:16:19;;;;;;;3.20;1.80;;;;;;;;;;21120026;28;20224;-68
2022/03/03 23:26:21;;;;;;;3.40;2.00;;;;;;;;;;21118170;28;20630;-68
2022/03/03 23:36:23;;;;;;;2.63;1.73;;;;;;;;;;21112955;28;20592;-68
2022/03/03 23:46:25;;;;;;;2.17;1.83;;;;;;;;;;21131782;28;20212;-67
2022/03/03 23:56:28;;;;;;;3.33;1.97;;;3.60;99.90;;;;;;21128924;28;20235;-67
